»·PEaware :: AAL2321 KLAS-KLAX

AAL2321 :: KLAS-KLAX

FLIGHT INFORMATION

Flight Status: Arrived
Operator:
American Airlines
More flights by this operator :: More flights under this callsign
Pilot: Alfonso ucha (14209)
Aircraft: BOEING 737-800
(B738)
More flights by this aircraft type
Origin: KLAS McCarran Intl
United States
Destination: KLAX Los Angeles Intl
United States
More flights between these airports :: More routes between these airports
Route: +BOACH7 RIKII ANJLL1
File this flight plan on PilotEdge
Remarks:
Altitude:
(Current/Filed)
21,000ft
Speed:
(Current/Filed)
400kts
Departed: 19-May-17 12:37 PM
Arrived: 19-May-17 01:25 PM
Distance/Time
Traveled:
204nm/0:48
Distance/Time
To Go:
Arrived

Flight Plot

Page will automatically refresh every two minutes.

Flight plan parsing failed; only flown route is shown


Map Options




Map Legend


Flown Route
Filed Route
Departure Airport
Arrival Airport
Navaid (VOR, NDB)
Fix

Horizontal Profiles

Position Reports

Time Latitude Longitude Heading Altitude Ground
Speed
19-May-17 12:19 36.079779 -115.139529 355 2149ft 0kts
19-May-17 12:20 36.079779 -115.139529 355 2149ft 0kts
19-May-17 12:21 36.079779 -115.139529 355 2149ft 0kts
19-May-17 12:22 36.079779 -115.139529 355 2149ft 0kts
19-May-17 12:23 36.079779 -115.139529 355 2149ft 0kts
19-May-17 12:24 36.079779 -115.139529 355 2149ft 0kts
19-May-17 12:25 36.079779 -115.139529 355 2149ft 0kts
19-May-17 12:26 36.079779 -115.139529 355 2149ft 0kts
19-May-17 12:27 36.079779 -115.139529 355 2149ft 0kts
19-May-17 12:28 36.079307 -115.139479 355 2149ft 0kts
19-May-17 12:29 36.079307 -115.139479 355 2149ft 0kts
19-May-17 12:30 36.079307 -115.139479 355 2149ft 0kts
19-May-17 12:31 36.079307 -115.139479 355 2149ft 0kts
19-May-17 12:32 36.079307 -115.139479 355 2149ft 0kts
19-May-17 12:33 36.079307 -115.139479 355 2149ft 0kts
19-May-17 12:34 36.079307 -115.139479 355 2149ft 0kts
19-May-17 12:35 36.079307 -115.139479 355 2149ft 0kts
19-May-17 12:36 36.078838 -115.139498 205 2149ft 9kts
19-May-17 12:37 36.078268 -115.133798 89 2149ft 26kts
19-May-17 12:38 36.078202 -115.122724 110 2149ft 22kts
19-May-17 12:39 36.076397 -115.131301 271 2151ft 133kts
19-May-17 12:40 36.076068 -115.193110 271 4261ft 233kts
19-May-17 12:41 36.041814 -115.271810 204 6304ft 333kts
19-May-17 12:42 35.940206 -115.304576 185 7139ft 380kts
19-May-17 12:43 35.854073 -115.313538 174 10062ft 303kts
19-May-17 12:44 35.768302 -115.304656 174 13052ft 321kts
19-May-17 12:45 35.677320 -115.295212 180 16024ft 342kts
19-May-17 12:46 35.582690 -115.298337 181 18946ft 362kts
19-May-17 12:47 35.484375 -115.330752 222 21008ft 410kts
19-May-17 12:48 35.403825 -115.436664 231 21018ft 429kts
19-May-17 12:49 35.323169 -115.543571 230 21018ft 429kts
19-May-17 12:50 35.242481 -115.650067 230 21019ft 429kts
19-May-17 12:51 35.162380 -115.755449 230 21018ft 429kts
19-May-17 12:52 35.081356 -115.861716 230 21012ft 430kts
19-May-17 12:53 35.000542 -115.967378 230 21010ft 428kts
19-May-17 12:54 34.919877 -116.072522 230 21028ft 424kts
19-May-17 12:55 34.840545 -116.175601 230 21124ft 422kts
19-May-17 12:56 34.760455 -116.279353 230 21128ft 423kts
19-May-17 12:57 34.680209 -116.382998 230 21114ft 423kts
19-May-17 12:58 34.599604 -116.486789 230 21124ft 423kts
19-May-17 12:59 34.519346 -116.589820 230 21113ft 423kts
19-May-17 13:00 34.439307 -116.692268 229 21120ft 425kts
19-May-17 13:01 34.358603 -116.795255 229 20306ft 420kts
19-May-17 13:02 34.279531 -116.895869 229 19070ft 409kts
19-May-17 13:03 34.211292 -116.992416 250 19011ft 338kts
19-May-17 13:04 34.179957 -117.098839 254 19028ft 341kts
19-May-17 13:05 34.108413 -117.165434 182 19035ft 352kts
19-May-17 13:06 34.013871 -117.144877 188 18599ft 357kts
19-May-17 13:07 33.942091 -117.214326 254 16584ft 341kts
19-May-17 13:08 33.955638 -117.320827 291 14613ft 326kts
19-May-17 13:09 33.984572 -117.418847 291 12604ft 295kts
19-May-17 13:10 34.011648 -117.506346 293 10608ft 270kts
19-May-17 13:11 34.016083 -117.587850 267 10012ft 237kts
19-May-17 13:12 34.008997 -117.666856 265 10009ft 240kts
19-May-17 13:13 34.001251 -117.745577 265 10024ft 215kts
19-May-17 13:14 33.995628 -117.802541 266 9861ft 157kts
19-May-17 13:15 33.990682 -117.853584 266 9098ft 153kts
19-May-17 13:16 33.985765 -117.903872 265 8279ft 150kts
19-May-17 13:17 33.980798 -117.954195 265 7436ft 153kts
19-May-17 13:18 33.975814 -118.004353 265 6575ft 150kts
19-May-17 13:19 33.970875 -118.053735 264 5716ft 149kts
19-May-17 13:20 33.965964 -118.102537 264 4867ft 147kts
19-May-17 13:21 33.961107 -118.150625 264 4036ft 145kts
19-May-17 13:22 33.956282 -118.198223 263 3222ft 144kts
19-May-17 13:23 33.951484 -118.245410 263 2427ft 144kts
19-May-17 13:24 33.946670 -118.292650 263 1643ft 142kts
19-May-17 13:25 33.941192 -118.338872 261 890ft 140kts
19-May-17 13:26 33.937102 -118.384520 265 175ft 138kts
19-May-17 13:27 33.935570 -118.407416 349 133ft 0kts
19-May-17 13:28 33.935570 -118.407416 349 133ft 0kts
19-May-17 13:29 33.935570 -118.407416 349 133ft 0kts
19-May-17 13:30 33.935570 -118.407416 349 133ft 0kts
19-May-17 13:31 33.936258 -118.404413 83 133ft 20kts
19-May-17 13:32 33.937253 -118.394630 83 133ft 31kts
19-May-17 13:33 33.939868 -118.388016 38 133ft 17kts
19-May-17 13:34 33.941325 -118.383463 2 133ft 10kts
19-May-17 13:35 33.941839 -118.383140 55 133ft 0kts
19-May-17 13:36 33.941839 -118.383140 55 133ft 0kts
19-May-17 13:37 33.941839 -118.383140 55 133ft 0kts

Navigation Log

Ident Type
Flight plan parsing failed, navigation log unavailable